createdAt,value
2023-03-30T00:01:10.656Z,9.23
2023-03-30T00:03:40.000Z,11.87
2023-03-30T00:06:08.948Z,8.10
2023-03-30T00:08:36.721Z,9.80
2023-03-30T00:11:06.716Z,9.23
2023-03-30T00:13:35.793Z,9.30
2023-03-30T00:16:03.848Z,10.50
2023-03-30T00:18:31.348Z,17.47
2023-03-30T00:21:00.115Z,10.87
2023-03-30T00:23:27.540Z,8.13
2023-03-30T00:25:55.374Z,13.40
2023-03-30T00:28:22.891Z,10.87
2023-03-30T00:30:51.063Z,32.43
2023-03-30T00:33:18.590Z,7.93
2023-03-30T00:35:52.964Z,8.80
2023-03-30T00:38:22.154Z,7.50
2023-03-30T00:40:52.652Z,7.03
2023-03-30T00:43:20.938Z,9.70
2023-03-30T00:45:48.958Z,14.47
2023-03-30T00:48:22.109Z,8.50
2023-03-30T00:50:54.575Z,6.27
2023-03-30T00:53:26.269Z,11.87
2023-03-30T00:55:55.231Z,7.77
2023-03-30T00:58:24.943Z,8.70
2023-03-30T01:00:53.153Z,6.80
2023-03-30T01:03:25.548Z,7.93
2023-03-30T01:05:53.700Z,16.97
2023-03-30T01:08:27.164Z,7.30
2023-03-30T01:10:56.332Z,8.00
2023-03-30T01:13:23.885Z,7.10
2023-03-30T01:16:02.220Z,7.10
2023-03-30T01:18:47.704Z,7.27
2023-03-30T01:22:00.305Z,7.00
2023-03-30T01:25:03.014Z,8.20
2023-03-30T01:28:09.716Z,8.90
2023-03-30T01:31:08.255Z,8.07
2023-03-30T01:33:58.613Z,7.10
2023-03-30T01:36:54.099Z,8.30
2023-03-30T01:39:33.379Z,10.97
2023-03-30T01:42:10.388Z,11.70
2023-03-30T01:44:44.982Z,10.27
2023-03-30T01:47:20.080Z,11.37
2023-03-30T01:49:57.467Z,32.87
2023-03-30T01:52:31.755Z,15.87
2023-03-30T01:55:04.654Z,9.33
2023-03-30T01:57:36.947Z,9.17
2023-03-30T02:00:13.789Z,9.73
2023-03-30T02:02:44.814Z,9.47
2023-03-30T02:05:17.866Z,11.60
2023-03-30T02:07:48.778Z,12.63
2023-03-30T02:10:20.446Z,14.20
2023-03-30T02:12:48.377Z,15.27
2023-03-30T02:15:17.617Z,12.83
2023-03-30T02:17:47.561Z,10.47
2023-03-30T02:20:17.527Z,10.70
2023-03-30T02:22:45.787Z,8.93
2023-03-30T02:25:13.943Z,8.03
2023-03-30T02:27:42.914Z,9.50
2023-03-30T02:30:11.238Z,11.87
2023-03-30T02:32:43.200Z,13.60
2023-03-30T02:35:48.013Z,12.80
2023-03-30T02:38:34.842Z,11.40
2023-03-30T02:41:12.695Z,10.17
2023-03-30T02:43:50.948Z,8.73
2023-03-30T02:46:32.373Z,9.10
2023-03-30T02:49:14.097Z,8.50
2023-03-30T02:51:46.999Z,7.53
2023-03-30T02:54:28.522Z,9.60
2023-03-30T02:57:05.180Z,8.70
2023-03-30T02:59:41.347Z,9.40
2023-03-30T03:02:13.082Z,10.23
2023-03-30T03:04:43.717Z,9.13
2023-03-30T03:07:12.116Z,10.00
2023-03-30T03:09:39.572Z,8.70
2023-03-30T03:12:07.576Z,9.27
2023-03-30T03:14:36.403Z,8.43
2023-03-30T03:17:05.127Z,8.00
2023-03-30T03:19:32.952Z,8.20
2023-03-30T03:22:00.370Z,7.67
2023-03-30T03:24:27.970Z,8.57
2023-03-30T03:26:55.602Z,7.97
2023-03-30T03:29:23.080Z,7.73
2023-03-30T03:31:51.942Z,9.83
2023-03-30T03:34:20.205Z,7.83
2023-03-30T03:36:52.214Z,7.43
2023-03-30T03:39:19.873Z,8.73
2023-03-30T03:41:47.277Z,7.10
2023-03-30T03:44:14.839Z,7.23
2023-03-30T03:46:42.284Z,7.17
2023-03-30T03:49:11.846Z,6.83
2023-03-30T03:51:39.541Z,6.63
2023-03-30T03:54:08.049Z,7.90
2023-03-30T03:56:35.490Z,7.87
2023-03-30T03:59:04.706Z,6.70
2023-03-30T04:01:32.942Z,7.73
2023-03-30T04:04:00.539Z,8.03
2023-03-30T04:06:29.597Z,7.43
2023-03-30T04:08:57.223Z,8.00
2023-03-30T04:11:24.646Z,8.23
2023-03-30T04:13:52.084Z,8.10
2023-03-30T04:16:19.570Z,10.33
2023-03-30T04:18:47.014Z,8.60
2023-03-30T04:21:17.601Z,9.23
2023-03-30T04:23:49.066Z,8.73
2023-03-30T04:26:17.711Z,8.60
2023-03-30T04:28:46.808Z,8.67
2023-03-30T04:31:14.637Z,9.97
2023-03-30T04:33:52.103Z,8.33
2023-03-30T04:36:20.214Z,9.20
2023-03-30T04:38:58.429Z,8.53
2023-03-30T04:41:33.347Z,8.30
2023-03-30T04:44:03.157Z,8.67
2023-03-30T04:46:30.999Z,8.07
2023-03-30T04:48:58.626Z,8.70
2023-03-30T04:51:26.168Z,7.70
2023-03-30T04:53:55.453Z,8.60
2023-03-30T04:56:22.875Z,8.70
2023-03-30T04:58:50.328Z,8.50
2023-03-30T05:01:17.764Z,8.63
2023-03-30T05:03:45.534Z,8.77
2023-03-30T05:06:13.641Z,8.57
2023-03-30T05:08:41.895Z,9.10
2023-03-30T05:11:11.719Z,9.47
2023-03-30T05:13:40.487Z,8.37
2023-03-30T05:16:09.135Z,7.93
2023-03-30T05:18:38.755Z,7.50
2023-03-30T05:21:06.713Z,8.70
2023-03-30T05:23:34.276Z,7.90
2023-03-30T05:26:03.802Z,8.13
2023-03-30T05:28:32.671Z,8.53
2023-03-30T05:31:00.680Z,9.77
2023-03-30T05:33:28.192Z,12.00
2023-03-30T05:35:55.735Z,7.87
2023-03-30T05:38:23.267Z,8.40
2023-03-30T05:40:53.424Z,7.90
2023-03-30T05:43:21.085Z,8.10
2023-03-30T05:45:49.829Z,8.67
2023-03-30T05:48:17.481Z,8.00
2023-03-30T05:50:44.943Z,7.97
2023-03-30T05:53:12.339Z,7.90
2023-03-30T05:55:39.754Z,7.60
2023-03-30T05:58:08.294Z,7.53
2023-03-30T06:00:37.238Z,7.67
2023-03-30T06:03:06.112Z,7.67
2023-03-30T06:05:35.255Z,7.90
2023-03-30T06:08:04.046Z,8.17
2023-03-30T06:10:31.634Z,7.13
2023-03-30T06:12:59.107Z,7.80
2023-03-30T06:15:27.156Z,8.20
2023-03-30T06:17:55.122Z,7.80
2023-03-30T06:20:26.073Z,7.93
2023-03-30T06:22:53.676Z,8.03
2023-03-30T06:25:23.452Z,7.67
2023-03-30T06:27:50.890Z,6.80
2023-03-30T06:30:18.345Z,6.77
2023-03-30T06:32:45.798Z,6.40
2023-03-30T06:35:15.802Z,7.40
2023-03-30T06:37:44.742Z,7.57
2023-03-30T06:40:13.962Z,6.83
2023-03-30T06:42:44.021Z,8.10
2023-03-30T06:45:12.581Z,7.20
2023-03-30T06:47:41.356Z,6.60
2023-03-30T06:50:09.908Z,7.23
2023-03-30T06:52:38.723Z,6.90
2023-03-30T06:55:09.434Z,6.40
2023-03-30T06:57:37.139Z,6.70
2023-03-30T07:00:10.204Z,6.17
2023-03-30T07:02:37.759Z,6.40
2023-03-30T07:05:06.884Z,6.40
2023-03-30T07:07:34.658Z,6.27
2023-03-30T07:10:02.544Z,5.77
2023-03-30T07:12:31.342Z,7.30
2023-03-30T07:14:58.733Z,6.90
2023-03-30T07:17:27.610Z,6.30
2023-03-30T07:19:55.694Z,5.83
2023-03-30T07:22:23.320Z,5.23
2023-03-30T07:24:50.818Z,5.70
2023-03-30T07:27:18.425Z,5.87
2023-03-30T07:29:47.351Z,5.97
2023-03-30T07:32:14.832Z,6.57
2023-03-30T07:34:42.534Z,6.73
2023-03-30T07:37:10.145Z,5.83
2023-03-30T07:39:37.656Z,5.93
2023-03-30T07:42:05.779Z,5.60
2023-03-30T07:44:33.227Z,5.47
2023-03-30T07:47:04.265Z,6.23
2023-03-30T07:49:32.058Z,5.60
2023-03-30T07:52:00.052Z,5.83
2023-03-30T07:54:27.607Z,5.73
2023-03-30T07:56:55.052Z,6.83
2023-03-30T07:59:24.063Z,6.40
2023-03-30T08:01:52.200Z,5.83
2023-03-30T08:04:22.356Z,5.97
2023-03-30T08:06:52.849Z,5.90
2023-03-30T08:09:26.604Z,5.87
2023-03-30T08:11:54.229Z,5.60
2023-03-30T08:14:23.526Z,5.70
2023-03-30T08:16:50.975Z,6.00
2023-03-30T08:19:18.382Z,5.90
2023-03-30T08:21:47.257Z,7.30
2023-03-30T08:24:14.711Z,5.53
2023-03-30T08:26:42.277Z,5.77
2023-03-30T08:29:10.116Z,5.10
2023-03-30T08:31:37.794Z,4.77
2023-03-30T08:34:06.584Z,5.73
2023-03-30T08:36:34.463Z,5.43
2023-03-30T08:39:04.816Z,4.80
2023-03-30T08:41:49.405Z,4.53
2023-03-30T08:44:29.571Z,4.33
2023-03-30T08:46:57.169Z,3.87
2023-03-30T08:49:26.446Z,4.40
2023-03-30T08:51:55.709Z,3.83
2023-03-30T08:54:25.906Z,4.00
2023-03-30T08:57:01.629Z,3.43
2023-03-30T08:59:37.808Z,3.90
2023-03-30T09:02:16.399Z,3.67
2023-03-30T09:04:58.535Z,3.90
2023-03-30T09:07:28.622Z,3.20
2023-03-30T09:09:58.395Z,4.00
2023-03-30T09:12:37.401Z,2.90
2023-03-30T09:15:09.525Z,26.03
2023-03-30T09:17:41.564Z,8.70
2023-03-30T09:20:14.648Z,14.43
2023-03-30T09:22:44.918Z,19.77
2023-03-30T09:25:20.089Z,18.47
2023-03-30T09:27:59.543Z,6.00
2023-03-30T09:30:33.527Z,9.70
2023-03-30T09:33:07.510Z,8.30
2023-03-30T09:35:41.652Z,14.03
2023-03-30T09:38:12.174Z,7.87
2023-03-30T09:41:07.231Z,11.53
2023-03-30T09:43:41.889Z,9.93
2023-03-30T09:46:09.553Z,8.70
2023-03-30T09:48:42.001Z,8.67
2023-03-30T09:51:21.568Z,6.80
2023-03-30T09:53:51.355Z,3.93
2023-03-30T09:56:26.368Z,10.10
2023-03-30T09:58:53.831Z,10.03
2023-03-30T10:01:22.007Z,7.53
2023-03-30T10:04:08.850Z,5.87
2023-03-30T10:06:39.924Z,2.43
2023-03-30T10:09:12.825Z,2.83
2023-03-30T10:11:44.296Z,2.40
2023-03-30T10:14:23.857Z,2.63
2023-03-30T10:16:51.309Z,2.73
2023-03-30T10:19:21.665Z,2.60
2023-03-30T10:21:49.568Z,3.00
2023-03-30T10:24:23.058Z,2.57
2023-03-30T10:26:55.436Z,2.70
2023-03-30T10:29:24.625Z,2.83
2023-03-30T10:31:58.392Z,3.40
2023-03-30T10:34:36.482Z,3.33
2023-03-30T10:37:07.830Z,2.80
2023-03-30T10:39:37.086Z,3.10
2023-03-30T10:42:07.915Z,3.00
2023-03-30T10:44:37.821Z,2.80
2023-03-30T10:47:20.758Z,2.83
2023-03-30T10:49:56.985Z,3.10
2023-03-30T10:52:33.996Z,3.67
2023-03-30T10:55:07.732Z,4.87
2023-03-30T10:57:48.793Z,8.03
2023-03-30T11:00:29.758Z,6.60
2023-03-30T11:03:04.002Z,5.57
2023-03-30T11:05:35.623Z,4.53
2023-03-30T11:08:06.072Z,3.80
2023-03-30T11:10:37.526Z,3.03
2023-03-30T11:13:08.240Z,3.33
2023-03-30T11:15:41.527Z,2.93
2023-03-30T11:18:17.386Z,2.60
2023-03-30T11:20:50.287Z,2.43
2023-03-30T11:23:27.629Z,2.63
2023-03-30T11:26:01.506Z,3.20
2023-03-30T11:29:07.971Z,3.40
2023-03-30T11:31:49.769Z,2.90
2023-03-30T11:34:27.770Z,2.90
2023-03-30T11:37:02.199Z,3.30
2023-03-30T11:39:32.890Z,3.50
2023-03-30T11:42:08.181Z,3.20
2023-03-30T11:44:36.116Z,3.67
2023-03-30T11:47:20.233Z,3.55
2023-03-30T11:50:02.899Z,3.47
2023-03-30T11:52:35.779Z,3.13
2023-03-30T11:55:25.838Z,3.60
2023-03-30T11:58:06.615Z,4.00
2023-03-30T12:00:50.524Z,2.83
2023-03-30T12:03:31.040Z,2.90
2023-03-30T12:06:07.385Z,2.80
2023-03-30T12:08:48.432Z,3.27
2023-03-30T12:11:26.705Z,3.07
2023-03-30T12:13:54.909Z,3.57
2023-03-30T12:16:28.542Z,2.90
2023-03-30T12:19:10.264Z,3.07
2023-03-30T12:21:43.742Z,3.23
2023-03-30T12:24:18.696Z,3.20
2023-03-30T12:26:58.214Z,4.47
2023-03-30T12:30:00.950Z,2.70
2023-03-30T12:32:31.893Z,2.80
2023-03-30T12:35:00.673Z,3.40
2023-03-30T12:37:33.361Z,3.00
2023-03-30T12:40:06.850Z,2.90
2023-03-30T12:42:35.857Z,2.80
2023-03-30T12:45:32.083Z,3.10
2023-03-30T12:48:14.242Z,3.20
2023-03-30T12:50:53.000Z,2.90
2023-03-30T12:53:51.746Z,2.53
2023-03-30T12:56:31.471Z,2.92
2023-03-30T12:59:24.004Z,2.50
2023-03-30T13:02:02.296Z,2.60
2023-03-30T13:04:35.123Z,2.83
2023-03-30T13:07:06.062Z,2.92
2023-03-30T13:09:51.246Z,2.70
2023-03-30T13:12:32.765Z,3.28
2023-03-30T13:15:20.532Z,2.80
2023-03-30T13:18:00.245Z,2.25
2023-03-30T13:20:33.995Z,2.92
2023-03-30T13:23:25.890Z,2.63
2023-03-30T13:26:03.516Z,2.72
2023-03-30T13:28:56.905Z,2.78
2023-03-30T13:31:49.176Z,3.03
2023-03-30T13:34:30.359Z,2.60
2023-03-30T13:37:05.734Z,3.00
2023-03-30T13:39:42.405Z,2.80
2023-03-30T13:42:28.352Z,3.43
2023-03-30T13:45:02.556Z,3.95
2023-03-30T13:47:45.912Z,3.10
2023-03-30T13:50:21.506Z,2.00
2023-03-30T13:52:51.486Z,1.70
2023-03-30T13:55:27.408Z,1.60
2023-03-30T13:58:01.007Z,2.03
2023-03-30T14:00:40.050Z,1.40
2023-03-30T14:03:31.651Z,1.53
2023-03-30T14:06:03.574Z,1.90
2023-03-30T14:08:35.465Z,1.97
2023-03-30T14:11:08.902Z,1.40
2023-03-30T14:13:38.138Z,1.57
2023-03-30T14:16:07.408Z,1.83
2023-03-30T14:18:35.958Z,1.70
2023-03-30T14:21:05.981Z,1.90
2023-03-30T14:23:38.216Z,1.60
2023-03-30T14:26:14.565Z,1.47
2023-03-30T14:28:42.595Z,1.50
2023-03-30T14:31:17.226Z,5.93
2023-03-30T14:33:45.614Z,2.57
2023-03-30T14:36:16.316Z,2.00
2023-03-30T14:38:47.705Z,1.90
2023-03-30T14:41:22.752Z,2.53
2023-03-30T14:43:56.079Z,2.37
2023-03-30T14:46:25.765Z,2.17
2023-03-30T14:48:53.600Z,2.37
2023-03-30T14:51:25.536Z,3.20
2023-03-30T14:53:54.592Z,3.17
2023-03-30T14:56:24.307Z,5.60
2023-03-30T14:58:53.157Z,3.83
2023-03-30T15:01:30.784Z,3.83
2023-03-30T15:04:08.226Z,4.00
2023-03-30T15:06:37.657Z,3.70
2023-03-30T15:09:10.491Z,3.73
2023-03-30T15:11:40.772Z,3.27
2023-03-30T15:14:11.073Z,3.50
2023-03-30T15:16:39.479Z,2.93
2023-03-30T15:19:14.405Z,2.97
2023-03-30T15:21:43.222Z,3.17
2023-03-30T15:24:17.551Z,3.00
2023-03-30T15:26:49.953Z,2.60
2023-03-30T15:29:19.974Z,3.10
2023-03-30T15:31:47.457Z,3.73
2023-03-30T15:34:16.290Z,2.90
2023-03-30T15:36:44.518Z,3.70
2023-03-30T15:39:21.130Z,3.47
2023-03-30T15:41:58.803Z,3.20
2023-03-30T15:44:26.269Z,3.10
2023-03-30T15:46:57.041Z,2.90
2023-03-30T15:49:31.370Z,2.60
2023-03-30T15:52:01.784Z,3.37
2023-03-30T15:54:34.766Z,3.10
2023-03-30T15:57:08.365Z,3.30
2023-03-30T15:59:41.344Z,3.60
2023-03-30T16:02:16.270Z,16.73
2023-03-30T16:04:44.247Z,7.20
2023-03-30T16:07:16.625Z,3.20
2023-03-30T16:09:44.212Z,2.80
2023-03-30T16:12:16.831Z,3.37
2023-03-30T16:14:44.545Z,2.97
2023-03-30T16:17:13.091Z,2.80
2023-03-30T16:19:41.206Z,3.93
2023-03-30T16:22:09.472Z,3.70
2023-03-30T16:24:37.390Z,3.07
2023-03-30T16:27:05.886Z,2.90
2023-03-30T16:29:35.295Z,2.90
2023-03-30T16:32:02.837Z,3.23
2023-03-30T16:34:30.413Z,2.60
2023-03-30T16:36:57.831Z,2.80
2023-03-30T16:39:27.184Z,10.60
2023-03-30T16:41:55.237Z,5.17
2023-03-30T16:44:24.736Z,3.60
2023-03-30T16:46:53.823Z,3.23
2023-03-30T16:49:22.883Z,2.90
2023-03-30T16:51:51.891Z,2.93
2023-03-30T16:54:30.285Z,3.03
2023-03-30T16:56:59.785Z,3.50
2023-03-30T16:59:30.241Z,3.53
2023-03-30T17:02:00.172Z,2.70
2023-03-30T17:04:27.860Z,3.00
2023-03-30T17:06:55.687Z,2.97
2023-03-30T17:09:23.443Z,3.57
2023-03-30T17:11:51.098Z,3.43
2023-03-30T17:14:20.108Z,3.47
2023-03-30T17:16:47.806Z,3.67
2023-03-30T17:19:16.697Z,3.93
2023-03-30T17:21:45.728Z,4.23
2023-03-30T17:24:15.086Z,5.63
2023-03-30T17:26:42.807Z,4.83
2023-03-30T17:29:10.725Z,7.13
2023-03-30T17:31:38.824Z,5.80
2023-03-30T17:34:07.056Z,6.10
2023-03-30T17:36:35.863Z,5.30
2023-03-30T17:39:04.856Z,6.60
2023-03-30T17:41:34.426Z,14.53
2023-03-30T17:44:01.880Z,7.70
2023-03-30T17:46:29.342Z,16.30
2023-03-30T17:48:58.732Z,4.87
2023-03-30T17:51:26.473Z,7.77
2023-03-30T17:53:55.274Z,12.97
2023-03-30T17:56:22.772Z,12.90
2023-03-30T17:58:51.810Z,8.40
2023-03-30T18:01:19.321Z,6.27
2023-03-30T18:03:46.894Z,5.47
2023-03-30T18:06:14.343Z,6.90
2023-03-30T18:08:42.944Z,7.57
2023-03-30T18:11:11.984Z,7.30
2023-03-30T18:13:39.571Z,24.47
2023-03-30T18:16:07.366Z,9.53
2023-03-30T18:18:34.907Z,11.03
2023-03-30T18:21:05.188Z,6.70
2023-03-30T18:23:34.402Z,5.20
2023-03-30T18:26:03.774Z,5.50
2023-03-30T18:28:32.980Z,5.47
2023-03-30T18:31:00.630Z,4.63
2023-03-30T18:33:28.491Z,4.60
2023-03-30T18:35:57.689Z,5.20
2023-03-30T18:38:25.914Z,5.30
2023-03-30T18:40:57.731Z,4.97
2023-03-30T18:43:26.999Z,7.10
2023-03-30T18:46:00.841Z,8.03
2023-03-30T18:48:29.486Z,8.77
2023-03-30T18:50:57.620Z,5.93
2023-03-30T18:53:26.886Z,6.63
2023-03-30T18:55:57.377Z,7.60
2023-03-30T18:58:27.124Z,5.57
2023-03-30T19:00:56.518Z,6.17
2023-03-30T19:03:24.845Z,9.67
2023-03-30T19:05:52.505Z,4.87
2023-03-30T19:08:21.910Z,4.23
2023-03-30T19:10:52.120Z,1.20
2023-03-30T19:13:22.062Z,1.53
2023-03-30T19:15:50.753Z,1.63
2023-03-30T19:18:20.023Z,1.40
2023-03-30T19:20:49.817Z,2.17
2023-03-30T19:23:18.654Z,1.20
2023-03-30T19:25:46.624Z,1.07
2023-03-30T19:28:14.975Z,1.13
2023-03-30T19:30:43.304Z,1.37
2023-03-30T19:33:15.164Z,1.30
2023-03-30T19:35:45.424Z,1.30
2023-03-30T19:38:13.217Z,0.90
2023-03-30T19:40:41.373Z,1.20
2023-03-30T19:43:09.355Z,0.97
2023-03-30T19:45:38.574Z,1.00
2023-03-30T19:48:06.417Z,1.03
2023-03-30T19:50:34.043Z,1.07
2023-03-30T19:53:02.838Z,2.57
2023-03-30T19:55:30.589Z,9.70
2023-03-30T19:57:58.108Z,4.40
2023-03-30T20:00:25.651Z,1.97
2023-03-30T20:02:55.268Z,1.70
2023-03-30T20:05:24.677Z,2.20
2023-03-30T20:07:52.721Z,1.47
2023-03-30T20:10:23.741Z,1.40
2023-03-30T20:12:52.026Z,2.30
2023-03-30T20:15:21.209Z,1.93
2023-03-30T20:17:48.690Z,1.33
2023-03-30T20:20:25.064Z,1.40
2023-03-30T20:22:56.093Z,9.27
2023-03-30T20:25:25.473Z,4.17
2023-03-30T20:27:53.395Z,3.03
2023-03-30T20:30:21.438Z,2.77
2023-03-30T20:33:03.911Z,3.10
2023-03-30T20:35:34.178Z,6.10
2023-03-30T20:38:04.825Z,8.20
2023-03-30T20:40:33.705Z,8.03
2023-03-30T20:43:02.161Z,12.63
2023-03-30T20:45:30.514Z,6.20
2023-03-30T20:47:58.253Z,4.07
2023-03-30T20:50:25.754Z,7.97
2023-03-30T20:52:53.800Z,4.50
2023-03-30T20:55:21.332Z,4.80
2023-03-30T20:57:50.103Z,7.93
2023-03-30T21:00:18.764Z,3.93
2023-03-30T21:02:46.664Z,6.07
2023-03-30T21:05:14.109Z,4.20
2023-03-30T21:07:46.789Z,7.20
2023-03-30T21:10:16.233Z,8.10
2023-03-30T21:12:43.668Z,2.43
2023-03-30T21:15:12.915Z,3.23
2023-03-30T21:17:40.462Z,6.37
2023-03-30T21:20:10.959Z,8.70
2023-03-30T21:22:38.446Z,18.17
2023-03-30T21:25:06.799Z,8.40
2023-03-30T21:27:34.681Z,13.50
2023-03-30T21:30:02.637Z,7.43
2023-03-30T21:32:31.919Z,14.20
2023-03-30T21:34:59.478Z,8.43
2023-03-30T21:37:27.123Z,8.00
2023-03-30T21:39:54.768Z,6.90
2023-03-30T21:42:22.283Z,4.80
2023-03-30T21:44:49.732Z,9.17
2023-03-30T21:47:17.150Z,10.00
2023-03-30T21:49:45.984Z,12.40
2023-03-30T21:52:13.553Z,9.97
2023-03-30T21:54:40.993Z,15.40
2023-03-30T21:57:08.526Z,4.07
2023-03-30T21:59:36.031Z,8.67
2023-03-30T22:02:03.757Z,13.80
2023-03-30T22:04:31.204Z,17.60
2023-03-30T22:06:59.949Z,5.80
2023-03-30T22:09:27.406Z,6.37
2023-03-30T22:11:55.483Z,3.03
2023-03-30T22:14:23.560Z,12.93
2023-03-30T22:16:50.996Z,9.17
2023-03-30T22:19:18.946Z,11.27
2023-03-30T22:21:46.477Z,13.53
2023-03-30T22:24:15.373Z,11.30
2023-03-30T22:26:42.823Z,8.23
2023-03-30T22:29:10.249Z,11.33
2023-03-30T22:31:37.726Z,10.13
2023-03-30T22:34:05.573Z,7.63
2023-03-30T22:36:33.224Z,6.93
2023-03-30T22:39:02.333Z,5.23
2023-03-30T22:41:31.698Z,6.97
2023-03-30T22:43:59.440Z,11.33
2023-03-30T22:46:28.041Z,13.73
2023-03-30T22:48:56.382Z,12.90
2023-03-30T22:51:27.157Z,15.33
2023-03-30T22:53:57.706Z,9.87
2023-03-30T22:56:25.732Z,15.90
2023-03-30T22:58:54.557Z,8.10
2023-03-30T23:01:22.223Z,27.60
2023-03-30T23:03:50.380Z,10.03
2023-03-30T23:06:19.145Z,12.87
2023-03-30T23:08:48.369Z,12.73
2023-03-30T23:11:16.352Z,10.67
2023-03-30T23:13:43.914Z,11.13
2023-03-30T23:16:12.802Z,10.10
2023-03-30T23:18:40.916Z,3.07
2023-03-30T23:21:11.221Z,4.50
2023-03-30T23:23:39.513Z,3.63
2023-03-30T23:26:09.872Z,8.33
2023-03-30T23:28:39.014Z,7.07
2023-03-30T23:31:10.769Z,10.07
2023-03-30T23:33:39.778Z,15.63
2023-03-30T23:36:08.551Z,8.00
2023-03-30T23:38:37.359Z,5.00
2023-03-30T23:41:06.021Z,4.93
2023-03-30T23:43:33.443Z,9.77
2023-03-30T23:46:00.950Z,15.47
2023-03-30T23:48:28.435Z,7.70
2023-03-30T23:50:59.090Z,4.90
2023-03-30T23:53:26.969Z,4.07
2023-03-30T23:55:54.900Z,3.40
2023-03-30T23:58:22.709Z,5.53
